Aérodrome :
LOGIN :

S'inscrire | Disclaimer

   EN    FR    IT 

 










Légende :    VFR   VFR Marginal   IFR   IFR Intensif   IFR Très Intensif
Visi : 
Plafond : 
>= 8 km
>= 3000ft
5 à 8 km
1000 à 3000 ft
1500m à 5 km
500 à 1000 ft
800 à 1500m
200 à 500 ft
< 800m
< 200 ft
Symboles :   Orages  Brouillard  Fortes neiges  Fortes précipitations  Vent > 20 kt
SIGMETs :   Divers  Orages  Givrage  Turbulence  Onde Orograph.  Cendres Volcan.






- Altitude de l'aérodrome : 75 ft
- Code IATA : MRH


EGYM - RAF Marham

DERNIER METAR :
  • 281150Z 15018KT 9999 -RA FEW015 OVC040 05/03 Q1005 BECMG 6000 RA SCT004 OVC008 RMK BLU BECMG YL02

METARs EXPIRÉS :
  • 281120Z 16018KT 9999 -RA FEW015 OVC040 04/03 Q1006 TEMPO 4000 RA SCT004 OVC008 RMK BLU TEMPO YLO2
  • 281050Z 17017KT 9999 -RA OVC028 04/02 Q1007 TEMPO 4000 RA SCT004 OVC800 RMK BLU TEMPO YLO2
  • 281020Z 18016KT 9999 -RA OVC030 04/01 Q1008 TEMPO 4000 RA SCT004 OVC008 RMK BLU TEMPO YLO2
  • 280950Z 17013KT 9999 -RA FEW028 OVC040 04/01 Q1009 TEMPO 4000 RA SCT004 OVC008 RMK BLU TEMPO YLO2

TAF TAF EGYM
Valide du 28 à 09h jusqu'au 28 à 18h UTC


280758Z 2809/2818 19008KT 9999 FEW028
BECMG 2809/2812 17015G27KT -RA BKN018
TEMPO 2810/2818 4000 RA SCT008 OVC015
PROB30
TEMPO 2814/2818 3000 +RA DZ SCT004
BECMG 2816/2818 21015G27KT



MET'MAP, la Météo Aéronautique d'un coup d'oeil ! - Copyright ORBIFLY Décembre 2007 - Disclaimer

ORBIFLY MET'MAP TEAM :

Programmation & Développement : Alexandra Zaïnal
Sur une idée originale de : Baudouin d'Aumeries
Assistance à la programmation : Marc-Olivier Méhu
Soutien technique & logistique : Manuel Goepfert

Contact : metmap@orbifly.com




SOURCES & CREDITS :

   NOAA